Time;durP1;ratioP1;P1;durP2;ratioP2;P2;SDS_P1;SDS_P2;PMS_P1;PMS_P2;Temp;Humidity;BMP_temperature;BMP_pressure;BME280_temperature;BME280_humidity;BME280_pressure;Samples;Min_cycle;Max_cycle;Signal;HPM_P1;HPM_P2
2021/03/21 00:02:26;;;;;;;8.00;5.10;;;5.10;93.50;;;;;;5037119;28;20195;-82
2021/03/21 00:05:00;;;;;;;9.07;4.63;;;5.10;93.50;;;;;;5037164;28;20176;-84
2021/03/21 00:07:30;;;;;;;11.87;5.00;;;5.10;93.40;;;;;;5035286;28;20558;-82
2021/03/21 00:10:04;;;;;;;10.03;5.27;;;5.10;93.50;;;;;;5035251;28;20180;-83
2021/03/21 00:12:31;;;;;;;8.67;4.60;;;5.10;93.50;;;;;;5036524;28;20198;-82
2021/03/21 00:14:56;;;;;;;8.90;4.23;;;5.10;93.40;;;;;;5036740;28;20275;-82
2021/03/21 00:17:24;;;;;;;5.83;4.30;;;5.10;93.50;;;;;;5037188;28;20208;-81
2021/03/21 00:19:52;;;;;;;8.63;4.03;;;5.10;93.70;;;;;;5036774;28;20168;-82
2021/03/21 00:22:21;;;;;;;7.57;4.50;;;5.20;93.80;;;;;;5036313;28;20215;-81
2021/03/21 00:24:48;;;;;;;5.77;3.40;;;5.10;93.70;;;;;;5036974;28;20169;-81
2021/03/21 00:27:20;;;;;;;8.30;4.30;;;5.20;93.80;;;;;;5036615;28;20606;-83
2021/03/21 00:29:51;;;;;;;5.97;3.83;;;5.20;93.70;;;;;;5035277;28;20180;-83
2021/03/21 00:32:22;;;;;;;7.17;4.27;;;5.20;93.60;;;;;;5035017;28;20201;-82
2021/03/21 00:34:57;;;;;;;13.43;5.33;;;5.20;93.70;;;;;;5034833;28;20704;-82
2021/03/21 00:37:30;;;;;;;8.50;4.77;;;5.20;93.70;;;;;;5036151;28;20652;-82
2021/03/21 00:40:01;;;;;;;7.73;4.97;;;5.30;93.70;;;;;;5036190;28;20641;-82
2021/03/21 00:42:27;;;;;;;8.67;4.43;;;5.30;93.60;;;;;;5036039;28;20191;-83
2021/03/21 00:44:53;;;;;;;10.47;5.17;;;5.30;93.70;;;;;;5036478;28;20187;-83
2021/03/21 00:47:28;;;;;;;8.63;4.60;;;5.30;93.70;;;;;;5036757;28;20208;-83
2021/03/21 00:50:02;;;;;;;12.27;4.97;;;5.30;93.80;;;;;;5035176;28;20304;-81
2021/03/21 00:52:34;;;;;;;9.43;4.93;;;5.30;93.80;;;;;;5034974;28;20227;-82
2021/03/21 00:55:00;;;;;;;13.43;5.30;;;5.30;93.60;;;;;;5036712;28;20286;-82
2021/03/21 00:57:28;;;;;;;14.40;6.13;;;5.40;93.60;;;;;;5036101;28;20177;-81
2021/03/21 00:59:55;;;;;;;11.33;5.77;;;5.40;93.60;;;;;;5035907;28;20173;-81
2021/03/21 01:02:22;;;;;;;8.80;3.70;;;5.40;93.60;;;;;;5035363;28;20196;-81
2021/03/21 01:04:54;;;;;;;15.23;7.10;;;5.40;93.60;;;;;;5036431;28;20240;-81
2021/03/21 01:07:21;;;;;;;10.03;5.43;;;5.50;93.50;;;;;;5036702;28;20168;-82
2021/03/21 01:09:52;;;;;;;12.90;6.10;;;5.50;93.50;;;;;;5036182;28;20180;-81
2021/03/21 01:12:22;;;;;;;15.20;7.83;;;5.60;93.40;;;;;;5034497;28;20199;-83
2021/03/21 01:14:49;;;;;;;12.47;7.67;;;5.60;93.40;;;;;;5036122;28;20224;-82
2021/03/21 01:17:15;;;;;;;20.53;7.80;;;5.60;93.40;;;;;;5036302;28;20562;-81
2021/03/21 01:19:46;;;;;;;13.27;7.67;;;5.70;93.20;;;;;;5035799;28;20676;-81
2021/03/21 01:22:15;;;;;;;12.07;5.43;;;5.60;93.20;;;;;;5035436;28;20201;-81
2021/03/21 01:24:43;;;;;;;7.83;4.10;;;5.70;93.20;;;;;;5035612;28;20173;-81
2021/03/21 01:27:18;;;;;;;14.40;8.33;;;5.80;93.00;;;;;;5035579;28;20176;-81
2021/03/21 01:29:46;;;;;;;17.07;7.97;;;5.70;93.00;;;;;;5035567;28;20266;-82
2021/03/21 01:32:16;;;;;;;14.00;7.63;;;5.70;93.40;;;;;;5036395;28;20668;-83
2021/03/21 01:34:46;;;;;;;11.40;7.13;;;5.70;93.60;;;;;;5035216;28;20246;-82
2021/03/21 01:37:17;;;;;;;14.23;7.80;;;5.70;93.90;;;;;;5035412;28;20173;-83
2021/03/21 01:39:47;;;;;;;12.23;7.17;;;5.70;94.00;;;;;;5035143;28;20237;-82
2021/03/21 01:42:24;;;;;;;7.87;5.07;;;5.70;94.10;;;;;;5034998;28;20216;-82
2021/03/21 01:44:55;;;;;;;13.00;6.50;;;5.70;94.30;;;;;;5033701;28;20176;-82
2021/03/21 01:47:40;;;;;;;8.13;4.53;;;5.70;94.30;;;;;;5033688;28;20164;-82
2021/03/21 01:50:33;;;;;;;10.00;5.63;;;5.70;94.40;;;;;;5034914;28;20240;-82
2021/03/21 01:53:07;;;;;;;16.27;5.63;;;5.70;94.30;;;;;;5035137;28;20620;-82
2021/03/21 01:55:41;;;;;;;7.47;4.53;;;5.70;94.20;;;;;;5034559;28;20187;-82
2021/03/21 01:58:10;;;;;;;7.70;4.27;;;5.70;94.30;;;;;;5033169;28;20720;-82
2021/03/21 02:00:38;;;;;;;5.63;3.77;;;5.70;94.30;;;;;;5034656;28;20176;-83
2021/03/21 02:03:11;;;;;;;8.10;4.10;;;5.80;94.20;;;;;;5032873;28;20239;-84
2021/03/21 02:05:44;;;;;;;3.60;2.80;;;5.70;94.30;;;;;;5034062;28;20214;-82
2021/03/21 02:08:40;;;;;;;8.60;4.30;;;5.80;94.30;;;;;;5034493;28;20262;-82
2021/03/21 02:11:35;;;;;;;6.63;3.67;;;5.80;94.20;;;;;;5034174;28;20644;-83
2021/03/21 02:14:30;;;;;;;3.63;2.50;;;5.80;94.10;;;;;;5034154;28;20192;-83
2021/03/21 02:17:16;;;;;;;4.13;3.00;;;5.80;94.00;;;;;;5034343;28;20157;-83
2021/03/21 02:20:30;;;;;;;5.40;2.67;;;5.80;94.00;;;;;;5034096;28;20549;-83
2021/03/21 02:23:12;;;;;;;5.17;1.63;;;5.80;94.00;;;;;;5022707;28;20303;-82
2021/03/21 02:26:08;;;;;;;5.47;2.47;;;5.80;93.90;;;;;;5034137;28;20669;-82
2021/03/21 02:29:22;;;;;;;5.53;3.17;;;5.70;93.80;;;;;;5034250;28;20165;-83
2021/03/21 02:32:07;;;;;;;2.60;1.83;;;5.70;93.90;;;;;;5032939;28;20223;-82
2021/03/21 02:34:56;;;;;;;6.43;3.20;;;5.70;94.00;;;;;;5032663;28;20192;-83
2021/03/21 02:37:34;;;;;;;5.70;3.60;;;5.70;94.00;;;;;;5034102;28;20160;-82
2021/03/21 02:40:14;;;;;;;9.87;3.67;;;5.70;94.00;;;;;;5032468;28;20177;-83
2021/03/21 02:43:03;;;;;;;5.90;3.00;;;5.60;94.00;;;;;;5033993;28;20632;-82
2021/03/21 02:45:35;;;;;;;15.03;4.60;;;5.70;93.90;;;;;;5033887;28;20180;-83
2021/03/21 02:48:19;;;;;;;14.50;5.23;;;5.70;93.70;;;;;;5033929;28;20196;-82
2021/03/21 02:51:01;;;;;;;10.17;3.53;;;5.60;93.60;;;;;;5033711;28;20259;-82
2021/03/21 02:53:54;;;;;;;10.47;3.80;;;5.70;93.50;;;;;;5032401;28;20196;-82
2021/03/21 02:56:24;;;;;;;18.30;3.73;;;5.60;93.30;;;;;;5032625;28;20200;-85
2021/03/21 02:59:00;;;;;;;9.20;3.57;;;5.70;93.10;;;;;;5038326;28;20169;-82
2021/03/21 03:01:38;;;;;;;12.37;5.40;;;5.70;93.00;;;;;;5032489;28;20252;-82
2021/03/21 03:04:29;;;;;;;13.50;4.30;;;5.70;93.00;;;;;;5033739;28;20186;-82
2021/03/21 03:07:20;;;;;;;14.33;4.33;;;5.70;93.00;;;;;;5032553;28;20180;-83
2021/03/21 03:09:53;;;;;;;15.13;3.67;;;5.60;93.10;;;;;;5033639;28;20168;-82
2021/03/21 03:12:28;;;;;;;11.93;4.10;;;5.60;93.20;;;;;;5034015;28;20564;-82
2021/03/21 03:15:07;;;;;;;10.37;3.53;;;5.60;93.30;;;;;;5032312;28;20199;-82
2021/03/21 03:17:44;;;;;;;12.53;3.57;;;5.50;93.40;;;;;;5035850;28;20601;-82
2021/03/21 03:20:41;;;;;;;15.07;3.53;;;5.50;93.40;;;;;;5037661;28;20180;-82
2021/03/21 03:23:24;;;;;;;15.13;3.53;;;5.60;93.40;;;;;;5036190;28;20211;-82
2021/03/21 03:26:11;;;;;;;9.70;3.10;;;5.60;93.50;;;;;;5036237;28;20227;-82
2021/03/21 03:28:52;;;;;;;12.83;3.63;;;5.60;93.40;;;;;;5036241;28;20176;-82
2021/03/21 03:31:44;;;;;;;21.30;4.30;;;5.50;93.40;;;;;;5037204;28;20176;-82
2021/03/21 03:34:17;;;;;;;17.20;3.57;;;5.50;93.50;;;;;;5035936;28;20184;-82
2021/03/21 03:36:50;;;;;;;11.23;3.57;;;5.50;93.60;;;;;;5037563;28;20182;-83
2021/03/21 03:39:24;;;;;;;12.73;3.10;;;5.50;93.80;;;;;;5035736;28;20200;-82
2021/03/21 03:42:03;;;;;;;15.30;3.40;;;5.50;93.80;;;;;;5037016;28;20200;-82
2021/03/21 03:45:04;;;;;;;13.03;3.00;;;5.50;93.60;;;;;;5035885;28;20666;-83
2021/03/21 03:48:01;;;;;;;14.77;3.67;;;5.50;93.40;;;;;;5035689;28;20190;-82
2021/03/21 03:50:58;;;;;;;19.13;2.67;;;5.50;93.30;;;;;;5036252;28;20275;-82
2021/03/21 03:53:44;;;;;;;16.40;2.93;;;5.50;93.40;;;;;;5035628;28;20211;-82
2021/03/21 03:56:28;;;;;;;15.37;3.33;;;5.50;93.10;;;;;;5037006;28;20539;-83
2021/03/21 03:58:56;;;;;;;23.47;3.40;;;5.40;92.80;;;;;;5035547;28;20265;-82
2021/03/21 04:01:51;;;;;;;24.07;3.63;;;5.40;92.70;;;;;;5035404;28;20246;-82
2021/03/21 04:04:37;;;;;;;29.57;3.43;;;5.50;92.40;;;;;;5035428;28;20271;-82
2021/03/21 04:07:24;;;;;;;22.90;3.37;;;5.50;92.30;;;;;;5036772;28;20619;-82
2021/03/21 04:10:09;;;;;;;21.97;4.07;;;5.50;91.30;;;;;;5036747;28;20161;-82
2021/03/21 04:13:01;;;;;;;21.20;3.97;;;5.50;90.70;;;;;;5035054;28;20200;-82
2021/03/21 04:15:34;;;;;;;24.83;5.00;;;5.50;90.00;;;;;;5035004;28;20202;-82
2021/03/21 04:18:25;;;;;;;15.40;3.40;;;5.50;90.20;;;;;;5036348;28;20165;-82
2021/03/21 04:21:02;;;;;;;17.40;4.57;;;5.40;90.40;;;;;;5036274;28;20169;-82
2021/03/21 04:23:42;;;;;;;18.30;3.73;;;5.40;90.80;;;;;;5035140;28;20188;-83
2021/03/21 04:26:20;;;;;;;22.40;3.20;;;5.40;90.90;;;;;;5036627;28;20566;-82
2021/03/21 04:29:04;;;;;;;20.20;3.80;;;5.40;90.60;;;;;;5035961;28;20172;-83
2021/03/21 04:31:36;;;;;;;32.83;5.27;;;5.30;89.20;;;;;;5036046;28;20192;-82
2021/03/21 04:34:09;;;;;;;32.43;4.40;;;5.20;88.90;;;;;;5036063;28;20197;-82
2021/03/21 04:36:40;;;;;;;24.73;5.17;;;5.20;88.80;;;;;;5034789;28;20656;-82
2021/03/21 04:39:17;;;;;;;46.33;6.40;;;5.10;88.30;;;;;;5034737;28;20181;-82
2021/03/21 04:42:14;;;;;;;28.13;5.20;;;5.00;88.30;;;;;;5036064;28;20188;-83
2021/03/21 04:44:52;;;;;;;38.63;6.23;;;5.00;87.70;;;;;;5035804;28;20184;-82
2021/03/21 04:47:29;;;;;;;29.20;5.43;;;5.00;87.80;;;;;;5035836;28;20183;-82
2021/03/21 04:49:56;;;;;;;42.50;6.00;;;4.90;86.90;;;;;;5034775;28;20204;-82
2021/03/21 04:52:39;;;;;;;47.60;8.83;;;4.90;85.20;;;;;;5035946;28;20184;-83
2021/03/21 04:55:19;;;;;;;37.80;6.17;;;4.90;85.30;;;;;;5035888;28;20184;-82
2021/03/21 04:57:49;;;;;;;43.57;5.20;;;4.80;85.90;;;;;;5035606;28;20169;-82
2021/03/21 05:00:46;;;;;;;25.30;4.43;;;4.80;86.00;;;;;;5035955;28;20165;-82
2021/03/21 05:03:38;;;;;;;42.80;7.40;;;4.80;86.00;;;;;;5035161;28;20199;-82
2021/03/21 05:06:15;;;;;;;25.60;4.67;;;4.90;86.30;;;;;;5035637;28;20553;-82
2021/03/21 05:08:58;;;;;;;42.13;7.53;;;4.80;86.50;;;;;;5034272;28;20173;-82
2021/03/21 05:11:37;;;;;;;37.53;7.27;;;4.90;86.50;;;;;;5035549;28;20710;-82
2021/03/21 05:14:26;;;;;;;49.50;9.23;;;4.80;86.20;;;;;;5034217;28;20259;-81
2021/03/21 05:17:18;;;;;;;40.60;7.00;;;4.80;86.30;;;;;;5031528;28;20195;-82
2021/03/21 05:20:14;;;;;;;51.97;7.53;;;4.80;86.30;;;;;;5035712;28;20173;-82
2021/03/21 05:22:55;;;;;;;32.07;6.33;;;4.70;85.90;;;;;;5119395;23;20228;-84
2021/03/21 05:25:36;;;;;;;46.93;8.03;;;4.70;84.80;;;;;;5034718;28;20576;-85
2021/03/21 05:28:34;;;;;;;40.73;6.50;;;4.70;85.00;;;;;;5034650;28;20176;-85
2021/03/21 05:31:04;;;;;;;41.30;6.43;;;4.70;84.60;;;;;;5033231;28;20259;-85
2021/03/21 05:33:37;;;;;;;40.10;8.83;;;4.70;84.30;;;;;;5033142;28;20192;-85
2021/03/21 05:36:29;;;;;;;40.87;7.77;;;4.70;83.80;;;;;;5034350;28;20225;-85
2021/03/21 05:39:00;;;;;;;36.60;8.40;;;4.70;84.20;;;;;;5032476;28;20176;-85
2021/03/21 05:41:58;;;;;;;56.97;7.70;;;4.60;84.20;;;;;;5033037;28;20226;-86
2021/03/21 05:44:57;;;;;;;50.57;9.37;;;4.60;84.40;;;;;;5034369;28;20172;-85
2021/03/21 05:48:18;;;;;;;60.30;9.23;;;4.60;84.30;;;;;;4999220;28;20204;-86
2021/03/21 05:51:09;;;;;;;51.97;8.30;;;4.60;84.00;;;;;;5022958;28;20188;-86
2021/03/21 05:54:19;;;;;;;58.23;8.80;;;4.60;84.40;;;;;;5034011;28;20567;-86
2021/03/21 05:57:04;;;;;;;57.83;8.30;;;4.60;84.90;;;;;;5033343;28;20175;-85
2021/03/21 06:00:12;;;;;;;60.47;8.53;;;4.60;85.00;;;;;;5032721;28;20207;-85
2021/03/21 06:03:12;;;;;;;52.50;8.40;;;4.60;85.00;;;;;;5033841;28;20735;-85
2021/03/21 06:06:02;;;;;;;54.30;8.53;;;4.60;85.00;;;;;;5032658;28;20171;-85
2021/03/21 06:08:34;;;;;;;54.63;9.70;;;4.70;85.00;;;;;;5033840;28;20181;-85
2021/03/21 06:11:23;;;;;;;54.60;8.37;;;4.60;85.00;;;;;;5032476;28;20550;-85
2021/03/21 06:14:21;;;;;;;52.13;9.30;;;4.60;85.30;;;;;;5033652;28;20287;-85
2021/03/21 06:17:00;;;;;;;55.53;8.83;;;4.70;84.90;;;;;;5013152;28;20187;-86
2021/03/21 06:19:51;;;;;;;48.63;8.50;;;4.70;85.10;;;;;;5033624;28;20640;-86
2021/03/21 06:22:41;;;;;;;59.53;9.33;;;4.80;84.90;;;;;;5033497;28;20196;-86
2021/03/21 06:25:33;;;;;;;54.13;7.97;;;4.80;85.00;;;;;;5033919;28;20173;-85
2021/03/21 06:28:36;;;;;;;50.60;8.20;;;4.80;84.50;;;;;;5032178;28;20649;-85
2021/03/21 06:31:09;;;;;;;59.40;9.10;;;4.80;84.60;;;;;;5033450;28;20187;-86
2021/03/21 06:33:54;;;;;;;60.37;10.10;;;4.90;85.00;;;;;;5032261;28;20230;-85
2021/03/21 06:36:44;;;;;;;57.37;8.97;;;4.90;84.80;;;;;;5033476;28;20173;-86
2021/03/21 06:39:28;;;;;;;46.37;8.53;;;4.90;84.50;;;;;;5032107;28;20183;-86
2021/03/21 06:42:19;;;;;;;57.70;8.70;;;5.00;84.60;;;;;;5032076;28;20173;-85
2021/03/21 06:45:21;;;;;;;55.30;9.23;;;5.00;84.50;;;;;;5032013;28;20211;-86
2021/03/21 06:48:24;;;;;;;71.33;13.60;;;5.00;84.80;;;;;;5031977;28;20180;-85
2021/03/21 06:51:17;;;;;;;63.47;10.13;;;5.00;84.60;;;;;;5033127;28;20202;-86
2021/03/21 06:54:18;;;;;;;50.23;8.23;;;5.10;84.70;;;;;;5033061;28;20211;-86
2021/03/21 06:57:13;;;;;;;47.67;7.53;;;5.10;84.20;;;;;;5031899;28;20175;-86
2021/03/21 07:00:15;;;;;;;52.67;8.63;;;5.20;83.80;;;;;;5031825;28;20261;-85
2021/03/21 07:03:19;;;;;;;54.43;8.63;;;5.20;83.70;;;;;;5024509;28;20211;-85
2021/03/21 07:06:04;;;;;;;62.47;11.50;;;5.20;84.10;;;;;;5031892;28;20263;-85
2021/03/21 07:09:03;;;;;;;63.53;10.33;;;5.30;84.00;;;;;;5033280;28;20157;-85
2021/03/21 07:12:08;;;;;;;64.10;10.17;;;5.30;84.10;;;;;;5022778;28;20604;-85
2021/03/21 07:14:52;;;;;;;63.33;10.00;;;5.30;83.60;;;;;;5031874;28;20199;-85
2021/03/21 07:17:52;;;;;;;51.37;8.87;;;5.30;83.50;;;;;;5033330;28;20152;-85
2021/03/21 07:20:37;;;;;;;54.87;9.50;;;5.30;83.10;;;;;;5031707;28;20176;-86
2021/03/21 07:23:20;;;;;;;50.97;9.37;;;5.30;83.00;;;;;;5031593;28;20208;-86
2021/03/21 07:26:14;;;;;;;58.43;9.33;;;5.30;82.70;;;;;;5031627;28;20188;-86
2021/03/21 07:29:27;;;;;;;61.60;10.00;;;5.40;82.90;;;;;;5033091;28;20163;-87
2021/03/21 07:32:07;;;;;;;54.23;9.43;;;5.50;82.80;;;;;;5032691;28;20180;-85
2021/03/21 07:34:59;;;;;;;51.40;9.73;;;5.40;82.70;;;;;;5032121;28;20196;-86
2021/03/21 07:37:58;;;;;;;73.83;11.70;;;5.40;82.70;;;;;;5031525;28;20177;-86
2021/03/21 07:40:52;;;;;;;59.27;10.53;;;5.40;82.70;;;;;;5031517;28;20174;-86
2021/03/21 07:43:54;;;;;;;67.93;10.37;;;5.40;82.70;;;;;;5032728;28;20330;-86
2021/03/21 07:46:43;;;;;;;46.43;9.07;;;5.40;82.50;;;;;;5031465;28;20233;-86
2021/03/21 07:49:34;;;;;;;71.83;11.83;;;5.40;82.30;;;;;;5031466;28;20267;-85
2021/03/21 07:52:12;;;;;;;60.47;8.87;;;5.40;82.50;;;;;;5031309;28;20172;-86
2021/03/21 07:55:09;;;;;;;47.07;9.63;;;5.50;82.50;;;;;;5032582;28;20286;-85
2021/03/21 07:57:43;;;;;;;51.83;9.33;;;5.40;83.30;;;;;;5032933;28;20254;-86
2021/03/21 08:00:11;;;;;;;59.40;9.30;;;5.50;82.20;;;;;;5032559;28;20173;-84
2021/03/21 08:02:47;;;;;;;52.00;9.07;;;5.50;82.30;;;;;;5032989;28;20196;-84
2021/03/21 08:05:25;;;;;;;56.43;10.97;;;5.60;82.40;;;;;;5035028;28;20183;-84
2021/03/21 08:07:58;;;;;;;60.67;10.37;;;5.60;82.50;;;;;;5035093;28;20184;-84
2021/03/21 08:10:34;;;;;;;55.80;9.73;;;5.70;82.10;;;;;;5034855;28;20184;-84
2021/03/21 08:13:17;;;;;;;57.80;9.60;;;5.70;82.20;;;;;;5036042;28;20192;-84
2021/03/21 08:15:43;;;;;;;65.07;10.47;;;5.70;82.30;;;;;;5036371;28;20214;-84
2021/03/21 08:18:31;;;;;;;52.57;9.80;;;5.80;82.10;;;;;;5036182;28;20177;-84
2021/03/21 08:21:14;;;;;;;53.07;10.03;;;5.80;82.50;;;;;;5036115;28;20273;-84
2021/03/21 08:23:51;;;;;;;60.13;10.63;;;5.90;82.20;;;;;;5035003;28;20261;-84
2021/03/21 08:26:32;;;;;;;44.33;9.07;;;5.80;81.30;;;;;;5034496;28;20265;-86
2021/03/21 08:29:18;;;;;;;44.87;7.63;;;5.90;81.50;;;;;;5034739;28;20233;-86
2021/03/21 08:32:08;;;;;;;52.90;10.37;;;5.90;80.00;;;;;;5034347;28;20188;-86
2021/03/21 08:34:40;;;;;;;52.80;8.27;;;5.90;80.20;;;;;;5035971;28;20276;-86
2021/03/21 08:37:27;;;;;;;50.33;9.23;;;6.00;81.50;;;;;;5035568;28;20180;-86
2021/03/21 08:40:09;;;;;;;56.97;10.00;;;6.00;80.50;;;;;;5034318;28;20165;-85
2021/03/21 08:42:42;;;;;;;71.60;9.83;;;6.10;79.20;;;;;;5035562;28;20199;-85
2021/03/21 08:45:37;;;;;;;48.63;8.60;;;6.10;80.30;;;;;;5034190;28;20212;-85
2021/03/21 08:48:24;;;;;;;48.83;9.07;;;6.30;79.90;;;;;;5034490;28;20176;-85
2021/03/21 08:51:00;;;;;;;57.17;9.03;;;6.30;79.10;;;;;;5034187;28;20222;-85
2021/03/21 08:54:02;;;;;;;49.57;9.10;;;6.50;79.00;;;;;;5033985;28;20287;-85
2021/03/21 08:56:59;;;;;;;46.73;8.20;;;6.50;78.20;;;;;;5033911;28;20184;-85
2021/03/21 08:59:38;;;;;;;48.37;8.57;;;6.50;77.40;;;;;;5033796;28;20171;-85
2021/03/21 09:02:18;;;;;;;43.80;7.03;;;6.60;76.60;;;;;;5035222;28;20566;-86
2021/03/21 09:05:06;;;;;;;44.17;8.50;;;6.70;77.40;;;;;;5033743;28;20187;-86
2021/03/21 09:08:03;;;;;;;41.80;10.60;;;6.70;77.00;;;;;;5033761;28;20180;-86
2021/03/21 09:10:32;;;;;;;43.33;8.47;;;6.80;77.20;;;;;;5034258;28;20178;-86
2021/03/21 09:13:01;;;;;;;43.23;8.80;;;6.80;76.00;;;;;;5034555;28;20191;-86
2021/03/21 09:15:45;;;;;;;44.93;7.27;;;6.80;76.90;;;;;;5033031;28;20280;-86
2021/03/21 09:18:18;;;;;;;42.67;7.40;;;6.90;76.40;;;;;;5034428;28;20269;-86
2021/03/21 09:20:52;;;;;;;39.60;7.40;;;6.90;75.70;;;;;;5033479;28;20637;-86
2021/03/21 09:23:38;;;;;;;41.87;8.40;;;6.80;76.00;;;;;;5033265;28;20209;-86
2021/03/21 09:26:11;;;;;;;41.40;8.83;;;6.90;75.30;;;;;;5034761;28;20163;-86
2021/03/21 09:28:41;;;;;;;38.53;6.87;;;6.90;75.10;;;;;;5034721;28;20624;-86
2021/03/21 09:31:15;;;;;;;38.27;6.63;;;6.90;76.10;;;;;;5034513;28;20171;-86
2021/03/21 09:34:02;;;;;;;40.20;7.80;;;7.10;75.50;;;;;;5033179;28;20195;-86
2021/03/21 09:36:42;;;;;;;41.83;7.73;;;7.10;74.50;;;;;;5032923;28;20453;-86
2021/03/21 09:39:19;;;;;;;34.90;7.57;;;7.20;75.20;;;;;;5034703;28;20624;-86
2021/03/21 09:41:54;;;;;;;42.00;8.07;;;7.30;75.90;;;;;;5033092;28;20177;-86
2021/03/21 09:44:36;;;;;;;34.50;8.07;;;7.40;75.50;;;;;;5034352;28;20703;-86
2021/03/21 09:47:20;;;;;;;31.47;7.23;;;7.50;74.20;;;;;;5034510;28;20171;-86
2021/03/21 09:49:56;;;;;;;32.10;6.80;;;7.50;73.70;;;;;;5034536;28;20182;-86
2021/03/21 09:52:49;;;;;;;32.13;6.30;;;7.50;73.30;;;;;;5033019;28;20198;-85
2021/03/21 09:55:48;;;;;;;32.87;7.30;;;7.60;71.30;;;;;;5032827;28;20302;-86
2021/03/21 09:58:44;;;;;;;44.47;7.20;;;7.60;72.20;;;;;;5034097;28;20176;-86
2021/03/21 10:01:29;;;;;;;40.00;6.70;;;7.80;73.80;;;;;;5034014;28;20164;-86
2021/03/21 10:04:06;;;;;;;33.23;6.90;;;7.90;72.20;;;;;;5032934;28;20570;-86
2021/03/21 10:06:43;;;;;;;31.27;6.27;;;8.00;71.90;;;;;;5033955;28;20251;-86
2021/03/21 10:09:19;;;;;;;39.63;7.33;;;8.10;71.10;;;;;;5033833;28;20199;-86
2021/03/21 10:11:59;;;;;;;28.87;5.50;;;8.10;70.80;;;;;;5032518;28;20207;-86
2021/03/21 10:14:26;;;;;;;30.10;6.33;;;8.00;70.40;;;;;;5033697;28;20197;-86
2021/03/21 10:16:54;;;;;;;27.73;5.77;;;8.10;71.00;;;;;;5034140;28;20240;-86
2021/03/21 10:19:44;;;;;;;31.00;5.97;;;8.10;69.20;;;;;;5033723;28;20175;-86
2021/03/21 10:22:29;;;;;;;28.73;5.70;;;8.00;68.60;;;;;;5033560;28;20677;-86
2021/03/21 10:25:30;;;;;;;28.73;6.67;;;8.00;69.20;;;;;;5032913;28;20262;-86
2021/03/21 10:28:34;;;;;;;29.63;6.17;;;8.10;69.60;;;;;;5032545;28;20656;-86
2021/03/21 10:31:27;;;;;;;33.07;5.77;;;8.20;68.50;;;;;;5033615;28;20176;-86
2021/03/21 10:34:19;;;;;;;28.60;6.00;;;8.20;67.70;;;;;;5033392;28;20283;-87
2021/03/21 10:36:52;;;;;;;27.87;5.50;;;8.30;69.30;;;;;;5033207;28;20172;-87
2021/03/21 10:39:24;;;;;;;20.07;4.73;;;8.40;68.50;;;;;;5033384;28;20263;-88
2021/03/21 10:42:04;;;;;;;26.90;5.07;;;8.40;67.20;;;;;;5033568;28;20537;-87
2021/03/21 10:44:49;;;;;;;25.80;5.23;;;8.40;67.70;;;;;;5032381;28;20199;-87
2021/03/21 10:47:31;;;;;;;24.27;4.67;;;8.50;67.10;;;;;;5033222;28;20165;-87
2021/03/21 10:50:05;;;;;;;27.13;5.53;;;8.60;66.30;;;;;;5033570;28;20248;-87
2021/03/21 10:52:37;;;;;;;24.10;5.17;;;8.70;66.50;;;;;;5033434;28;20624;-87
2021/03/21 10:55:20;;;;;;;26.17;5.63;;;8.80;66.20;;;;;;5033120;28;20192;-87
2021/03/21 10:57:54;;;;;;;22.07;5.20;;;8.80;66.90;;;;;;5031980;28;20183;-87
2021/03/21 11:00:32;;;;;;;24.00;5.47;;;8.90;66.80;;;;;;5031968;28;20707;-86
2021/03/21 11:03:11;;;;;;;29.23;5.83;;;9.00;65.90;;;;;;5031910;28;20192;-86
2021/03/21 11:05:43;;;;;;;21.67;5.13;;;9.10;66.50;;;;;;5033135;28;20196;-86
2021/03/21 11:08:18;;;;;;;24.90;5.93;;;9.20;64.90;;;;;;5031806;28;20226;-86
2021/03/21 11:10:47;;;;;;;20.70;4.83;;;9.30;66.00;;;;;;5033298;28;20543;-87
2021/03/21 11:13:16;;;;;;;23.80;5.27;;;9.30;65.70;;;;;;5033297;28;20189;-86
2021/03/21 11:15:52;;;;;;;26.93;5.67;;;9.60;65.90;;;;;;5031669;28;20204;-86
2021/03/21 11:18:43;;;;;;;19.23;5.30;;;9.80;64.40;;;;;;5033507;28;20211;-84
2021/03/21 11:21:38;;;;;;;22.93;5.57;;;9.70;63.30;;;;;;5033132;28;20175;-87
2021/03/21 11:24:35;;;;;;;30.97;6.87;;;9.80;63.60;;;;;;5059253;23;20244;-88
2021/03/21 11:27:12;;;;;;;28.20;5.77;;;9.80;64.90;;;;;;5053005;28;20172;-88
2021/03/21 11:29:45;;;;;;;24.60;5.53;;;9.60;64.00;;;;;;5052953;28;20251;-88
2021/03/21 11:32:30;;;;;;;24.77;6.33;;;9.80;66.60;;;;;;5036022;28;20167;-89
2021/03/21 11:35:07;;;;;;;24.87;5.37;;;9.90;64.70;;;;;;5033190;28;20689;-89
2021/03/21 11:37:44;;;;;;;20.23;6.00;;;9.90;62.30;;;;;;5016864;28;20627;-88
2021/03/21 11:40:27;;;;;;;25.07;6.07;;;10.00;62.20;;;;;;5036991;28;20165;-89
2021/03/21 11:43:24;;;;;;;23.17;4.97;;;10.10;62.50;;;;;;5036703;28;20188;-89
2021/03/21 11:46:11;;;;;;;22.17;4.70;;;10.30;62.50;;;;;;5018783;28;20260;-89
2021/03/21 11:48:44;;;;;;;30.93;6.03;;;10.40;61.20;;;;;;5018750;28;20188;-89
2021/03/21 11:51:20;;;;;;;16.27;4.77;;;10.40;60.70;;;;;;5036726;28;20209;-89
2021/03/21 11:53:48;;;;;;;20.67;5.07;;;10.30;59.10;;;;;;5018463;28;20199;-89
2021/03/21 11:57:02;;;;;;;23.37;5.20;;;10.10;60.10;;;;;;5036592;28;20177;-89
2021/03/21 11:59:47;;;;;;;24.83;5.13;;;10.30;59.00;;;;;;4992908;28;20235;-89
2021/03/21 12:02:28;;;;;;;21.00;5.60;;;10.10;58.40;;;;;;5018518;28;20259;-88
2021/03/21 12:05:00;;;;;;;24.00;5.00;;;10.00;60.10;;;;;;5036356;28;20183;-89
2021/03/21 12:07:33;;;;;;;18.83;4.40;;;10.10;60.60;;;;;;5018546;28;20172;-89
2021/03/21 12:10:04;;;;;;;22.67;4.70;;;10.10;60.10;;;;;;5018602;28;20165;-89
2021/03/21 12:12:35;;;;;;;16.83;3.80;;;9.90;59.00;;;;;;5036188;28;20264;-89
2021/03/21 12:15:28;;;;;;;18.30;4.50;;;9.90;58.10;;;;;;5036157;28;20657;-89
2021/03/21 12:18:18;;;;;;;24.90;5.67;;;10.00;58.30;;;;;;5036295;28;20169;-89
2021/03/21 12:20:54;;;;;;;19.43;4.37;;;9.90;60.60;;;;;;5018285;28;20177;-89
2021/03/21 12:23:34;;;;;;;21.17;4.93;;;9.90;60.30;;;;;;5035901;28;20204;-89
2021/03/21 12:26:31;;;;;;;24.23;6.27;;;9.90;59.80;;;;;;5018171;28;20184;-89
2021/03/21 12:29:04;;;;;;;22.77;5.37;;;10.00;59.40;;;;;;5018133;28;20200;-89
2021/03/21 12:31:37;;;;;;;22.77;4.67;;;10.00;60.00;;;;;;5018342;28;20173;-89
2021/03/21 12:34:42;;;;;;;21.50;4.80;;;10.10;59.80;;;;;;5035831;28;20197;-89
2021/03/21 12:37:14;;;;;;;24.53;5.07;;;9.90;56.90;;;;;;5018283;28;20172;-88
2021/03/21 12:39:47;;;;;;;18.47;4.07;;;9.90;58.90;;;;;;5017914;28;20267;-89
2021/03/21 12:42:33;;;;;;;19.63;4.37;;;9.90;57.00;;;;;;5017935;28;20637;-89
2021/03/21 12:45:14;;;;;;;19.80;4.93;;;9.90;56.10;;;;;;5035551;28;20246;-89
2021/03/21 12:47:55;;;;;;;15.67;4.53;;;9.90;55.00;;;;;;5035405;28;20182;-89
2021/03/21 12:50:24;;;;;;;20.73;4.53;;;10.00;55.10;;;;;;5018344;28;20180;-89
2021/03/21 12:52:53;;;;;;;21.67;5.00;;;10.20;58.40;;;;;;5017728;28;20683;-89
2021/03/21 12:55:26;;;;;;;21.73;5.03;;;10.30;57.60;;;;;;5017674;28;20223;-89
2021/03/21 12:57:55;;;;;;;16.57;4.13;;;10.70;57.40;;;;;;5017799;28;20588;-89
2021/03/21 13:00:29;;;;;;;20.13;4.80;;;10.80;53.90;;;;;;5035422;28;20169;-89
2021/03/21 13:03:02;;;;;;;19.87;4.30;;;11.00;56.30;;;;;;5017476;28;20200;-89
2021/03/21 13:05:36;;;;;;;18.57;5.00;;;11.10;56.80;;;;;;5035363;28;20544;-89
2021/03/21 13:08:10;;;;;;;29.97;5.03;;;11.20;55.70;;;;;;5017460;28;20243;-89
2021/03/21 13:10:41;;;;;;;20.80;5.83;;;11.20;57.40;;;;;;5017510;28;20188;-89
2021/03/21 13:13:10;;;;;;;25.80;5.73;;;11.20;58.40;;;;;;5017159;28;20192;-89
2021/03/21 13:15:39;;;;;;;20.90;5.43;;;11.40;57.60;;;;;;5017148;28;20330;-90
2021/03/21 13:18:08;;;;;;;28.33;5.27;;;11.40;55.20;;;;;;5017291;28;20176;-89
2021/03/21 13:20:38;;;;;;;24.07;5.07;;;11.50;57.00;;;;;;5017282;28;20177;-90
2021/03/21 13:23:12;;;;;;;24.33;5.10;;;11.30;57.00;;;;;;5017030;28;20205;-89
2021/03/21 13:25:47;;;;;;;19.17;5.60;;;11.00;58.00;;;;;;5017022;28;20180;-89
2021/03/21 13:28:19;;;;;;;26.03;4.43;;;11.30;59.00;;;;;;5017123;28;20175;-89
2021/03/21 13:30:51;;;;;;;32.53;5.93;;;11.20;58.80;;;;;;5017181;28;20250;-89
2021/03/21 13:33:25;;;;;;;21.80;4.90;;;11.40;59.30;;;;;;5034598;28;20688;-89
2021/03/21 13:35:58;;;;;;;23.93;5.13;;;11.70;57.30;;;;;;5034795;28;20196;-89
2021/03/21 13:38:33;;;;;;;19.70;4.37;;;11.70;57.40;;;;;;5034796;28;20172;-89
2021/03/21 13:41:03;;;;;;;22.93;4.70;;;11.80;56.50;;;;;;5035061;28;20163;-89
2021/03/21 13:43:33;;;;;;;22.13;5.23;;;11.90;55.30;;;;;;5034547;28;20587;-89
2021/03/21 13:46:03;;;;;;;23.27;5.33;;;11.90;57.30;;;;;;5016599;28;20173;-89
2021/03/21 13:48:35;;;;;;;24.67;4.93;;;11.60;57.50;;;;;;5034390;28;20707;-90
2021/03/21 13:51:04;;;;;;;22.77;5.13;;;11.50;57.70;;;;;;5016769;28;20713;-90
2021/03/21 13:53:32;;;;;;;18.30;4.50;;;11.80;56.20;;;;;;5034195;28;20196;-89
2021/03/21 13:56:04;;;;;;;22.63;4.67;;;11.90;56.50;;;;;;5034085;28;20560;-89
2021/03/21 13:58:34;;;;;;;26.70;5.57;;;12.00;58.00;;;;;;5016839;28;20201;-89